createdAt,value
2022-10-22T00:01:36.933Z,12.51
2022-10-22T00:06:36.838Z,12.52
2022-10-22T00:11:36.751Z,12.69
2022-10-22T00:16:36.980Z,12.67
2022-10-22T00:21:36.659Z,12.64
2022-10-22T00:26:53.919Z,12.67
2022-10-22T00:31:36.540Z,12.63
2022-10-22T00:36:37.319Z,12.48
2022-10-22T00:41:36.320Z,12.37
2022-10-22T00:46:44.594Z,12.37
2022-10-22T00:51:46.390Z,12.33
2022-10-22T00:56:49.342Z,12.29
2022-10-22T01:01:36.030Z,12.33
2022-10-22T01:06:35.969Z,12.27
2022-10-22T01:11:36.822Z,12.29
2022-10-22T01:16:36.288Z,12.20
2022-10-22T01:21:36.171Z,12.30
2022-10-22T01:26:35.752Z,12.37
2022-10-22T01:31:35.734Z,12.44
2022-10-22T01:36:35.826Z,12.57
2022-10-22T01:41:35.583Z,12.52
2022-10-22T01:46:46.902Z,12.49
2022-10-22T01:51:46.878Z,12.59
2022-10-22T01:56:35.286Z,12.69
2022-10-22T02:01:35.230Z,12.66
2022-10-22T02:06:35.158Z,12.67
2022-10-22T02:11:35.097Z,12.71
2022-10-22T02:16:35.032Z,12.64
2022-10-22T02:21:34.948Z,12.67
2022-10-22T02:26:34.921Z,12.81
2022-10-22T02:31:34.831Z,12.71
2022-10-22T02:36:35.160Z,12.79
2022-10-22T02:41:34.766Z,12.81
2022-10-22T02:46:34.788Z,12.81
2022-10-22T02:51:35.082Z,12.84
2022-10-22T02:56:38.522Z,12.79
2022-10-22T03:01:34.449Z,12.75
2022-10-22T03:06:34.342Z,12.81
2022-10-22T03:11:34.330Z,12.85
2022-10-22T03:16:34.478Z,12.81
2022-10-22T03:21:34.231Z,12.88
2022-10-22T03:26:34.180Z,12.87
2022-10-22T03:31:34.072Z,12.84
2022-10-22T03:36:33.952Z,12.92
2022-10-22T03:41:33.902Z,12.87
2022-10-22T03:46:34.588Z,12.92
2022-10-22T03:51:33.811Z,12.82
2022-10-22T03:56:33.719Z,12.77
2022-10-22T04:01:33.705Z,12.84
2022-10-22T04:06:33.573Z,12.79
2022-10-22T04:11:33.604Z,12.74
2022-10-22T04:16:33.601Z,12.75
2022-10-22T04:21:33.385Z,12.78
2022-10-22T04:26:33.300Z,12.77
2022-10-22T04:31:33.261Z,12.70
2022-10-22T04:36:33.180Z,12.78
2022-10-22T04:41:33.092Z,12.75
2022-10-22T04:46:33.027Z,12.84
2022-10-22T04:51:32.986Z,12.79
2022-10-22T04:56:32.931Z,12.79
2022-10-22T05:01:33.908Z,12.74
2022-10-22T05:06:32.799Z,12.77
2022-10-22T05:11:32.789Z,12.77
2022-10-22T05:16:32.744Z,12.54
2022-10-22T05:21:32.558Z,12.49
2022-10-22T05:26:41.636Z,12.64
2022-10-22T05:31:32.426Z,12.79
2022-10-22T05:36:32.373Z,12.77
2022-10-22T05:41:32.350Z,12.81
2022-10-22T05:46:32.257Z,12.77
2022-10-22T05:51:32.337Z,12.82
2022-10-22T05:56:32.150Z,12.88
2022-10-22T06:01:32.050Z,12.95
2022-10-22T06:06:31.985Z,12.95
2022-10-22T06:11:34.997Z,12.92
2022-10-22T06:16:32.020Z,12.92
2022-10-22T06:21:32.214Z,12.89
2022-10-22T06:26:31.857Z,12.92
2022-10-22T06:31:31.768Z,12.97
2022-10-22T06:36:31.734Z,13.02
2022-10-22T06:41:31.530Z,13.04
2022-10-22T06:46:31.461Z,13.07
2022-10-22T06:51:31.455Z,13.09
2022-10-22T06:56:31.437Z,13.11
2022-10-22T07:01:31.386Z,13.24
2022-10-22T07:06:31.237Z,14.31
2022-10-22T07:11:31.149Z,15.45
2022-10-22T07:16:32.457Z,14.61
2022-10-22T07:21:31.154Z,14.09
2022-10-22T07:26:31.234Z,13.61
2022-10-22T07:31:31.020Z,13.47
2022-10-22T07:36:30.903Z,13.17
2022-10-22T07:41:30.817Z,13.14
2022-10-22T07:46:30.708Z,13.07
2022-10-22T07:51:30.684Z,12.95
2022-10-22T07:56:30.585Z,12.93
2022-10-22T08:01:30.556Z,12.97
2022-10-22T08:06:30.423Z,12.74
2022-10-22T08:11:30.376Z,12.54
2022-10-22T08:16:30.283Z,12.66
2022-10-22T08:21:30.213Z,12.60
2022-10-22T08:26:30.163Z,12.63
2022-10-22T08:31:30.107Z,12.59
2022-10-22T08:36:30.079Z,12.77
2022-10-22T08:41:29.931Z,13.04
2022-10-22T08:46:29.899Z,13.38
2022-10-22T08:51:29.834Z,13.81
2022-10-22T08:56:29.775Z,13.92
2022-10-22T09:01:29.726Z,13.99
2022-10-22T09:06:29.690Z,13.99
2022-10-22T09:11:29.578Z,14.09
2022-10-22T09:16:29.525Z,14.29
2022-10-22T09:21:29.525Z,14.71
2022-10-22T09:26:29.469Z,14.91
2022-10-22T09:31:29.280Z,15.17
2022-10-22T09:36:29.261Z,15.57
2022-10-22T09:41:29.167Z,15.97
2022-10-22T09:46:29.126Z,16.35
2022-10-22T09:51:29.018Z,16.78
2022-10-22T09:56:29.000Z,17.11
2022-10-22T10:01:28.896Z,17.15
2022-10-22T10:06:28.836Z,17.46
2022-10-22T10:11:29.425Z,17.70
2022-10-22T10:16:28.933Z,17.92
2022-10-22T10:21:28.679Z,18.21
2022-10-22T10:26:28.713Z,19.06
2022-10-22T10:31:28.547Z,19.10
2022-10-22T10:36:28.448Z,18.50
2022-10-22T10:41:28.456Z,18.43
2022-10-22T10:46:29.544Z,18.47
2022-10-22T10:51:28.242Z,18.25
2022-10-22T10:56:28.290Z,18.47
2022-10-22T11:01:28.154Z,18.59
2022-10-22T11:06:28.217Z,18.52
2022-10-22T11:11:28.153Z,18.49
2022-10-22T11:16:28.158Z,18.43
2022-10-22T11:21:27.998Z,18.36
2022-10-22T11:26:27.793Z,18.03
2022-10-22T11:31:27.786Z,17.84
2022-10-22T11:36:27.767Z,17.64
2022-10-22T11:41:27.654Z,17.59
2022-10-22T11:46:27.537Z,17.81
2022-10-22T11:51:27.829Z,17.99
2022-10-22T11:56:27.434Z,17.94
2022-10-22T12:01:27.369Z,17.97
2022-10-22T12:06:27.268Z,18.09
2022-10-22T12:11:27.185Z,17.99
2022-10-22T12:16:43.942Z,17.81
2022-10-22T12:21:28.120Z,17.54
2022-10-22T12:26:26.988Z,17.22
2022-10-22T12:31:26.984Z,17.07
2022-10-22T12:36:26.868Z,16.88
2022-10-22T12:41:26.915Z,16.90
2022-10-22T12:46:26.713Z,16.92
2022-10-22T12:51:26.703Z,16.96
2022-10-22T12:56:26.597Z,16.96
2022-10-22T13:01:26.743Z,16.93
2022-10-22T13:06:26.488Z,16.92
2022-10-22T13:11:26.406Z,16.98
2022-10-22T13:16:26.397Z,17.07
2022-10-22T13:21:26.277Z,17.14
2022-10-22T13:26:26.240Z,17.22
2022-10-22T13:31:26.226Z,17.33
2022-10-22T13:36:26.086Z,17.50
2022-10-22T13:41:35.285Z,17.62
2022-10-22T13:46:25.920Z,17.85
2022-10-22T13:51:25.858Z,18.13
2022-10-22T13:56:25.813Z,18.18
2022-10-22T14:01:25.761Z,18.25
2022-10-22T14:06:25.736Z,18.21
2022-10-22T14:11:25.636Z,18.21
2022-10-22T14:16:25.531Z,18.19
2022-10-22T14:21:25.542Z,18.15
2022-10-22T14:26:25.398Z,18.09
2022-10-22T14:31:25.384Z,18.04
2022-10-22T14:36:25.263Z,18.07
2022-10-22T14:41:25.218Z,18.18
2022-10-22T14:46:25.127Z,18.22
2022-10-22T14:51:25.355Z,18.19
2022-10-22T14:56:25.035Z,18.13
2022-10-22T15:01:24.992Z,18.07
2022-10-22T15:06:25.134Z,18.04
2022-10-22T15:11:24.785Z,18.02
2022-10-22T15:16:24.723Z,17.99
2022-10-22T15:21:24.668Z,17.88
2022-10-22T15:26:24.628Z,17.76
2022-10-22T15:31:24.600Z,17.51
2022-10-22T15:36:24.465Z,17.33
2022-10-22T15:41:24.417Z,17.15
2022-10-22T15:46:24.351Z,16.99
2022-10-22T15:51:24.271Z,16.93
2022-10-22T15:56:24.199Z,16.81
2022-10-22T16:01:24.162Z,16.67
2022-10-22T16:06:24.061Z,16.45
2022-10-22T16:11:24.008Z,16.18
2022-10-22T16:16:24.013Z,15.88
2022-10-22T16:21:23.889Z,15.64
2022-10-22T16:26:23.816Z,15.41
2022-10-22T16:31:23.865Z,15.17
2022-10-22T16:36:23.730Z,15.11
2022-10-22T16:41:23.612Z,14.88
2022-10-22T16:46:23.547Z,14.71
2022-10-22T16:51:23.514Z,14.65
2022-10-22T16:56:23.461Z,14.39
2022-10-22T17:01:23.525Z,14.64
2022-10-22T17:06:23.503Z,15.33
2022-10-22T17:11:23.217Z,15.38
2022-10-22T17:16:23.169Z,15.54
2022-10-22T17:21:23.203Z,16.31
2022-10-22T17:26:23.072Z,15.94
2022-10-22T17:31:23.048Z,15.01
2022-10-22T17:36:22.874Z,14.95
2022-10-22T17:41:22.827Z,14.86
2022-10-22T17:46:22.776Z,14.14
2022-10-22T17:51:22.683Z,14.01
2022-10-22T17:56:22.611Z,13.84
2022-10-22T18:01:22.689Z,14.14
2022-10-22T18:06:22.506Z,14.37
2022-10-22T18:11:22.496Z,14.09
2022-10-22T18:16:22.410Z,13.80
2022-10-22T18:21:22.319Z,13.59
2022-10-22T18:26:25.883Z,13.70
2022-10-22T18:31:22.194Z,14.16
2022-10-22T18:36:22.200Z,13.89
2022-10-22T18:41:22.061Z,13.59
2022-10-22T18:46:21.991Z,13.49
2022-10-22T18:51:21.907Z,13.18
2022-10-22T18:56:21.838Z,13.06
2022-10-22T19:01:21.917Z,12.85
2022-10-22T19:06:21.725Z,12.99
2022-10-22T19:11:21.661Z,12.92
2022-10-22T19:16:21.590Z,13.14
2022-10-22T19:21:21.508Z,13.12
2022-10-22T19:26:21.449Z,12.95
2022-10-22T19:31:21.392Z,12.84
2022-10-22T19:36:21.335Z,12.97
2022-10-22T19:41:21.276Z,12.93
2022-10-22T19:46:21.179Z,13.00
2022-10-22T19:51:21.280Z,13.07
2022-10-22T19:56:22.773Z,13.18
2022-10-22T20:01:21.117Z,13.54
2022-10-22T20:06:20.934Z,13.30
2022-10-22T20:11:20.935Z,13.70
2022-10-22T20:16:20.840Z,13.79
2022-10-22T20:21:20.801Z,14.06
2022-10-22T20:26:20.655Z,14.06
2022-10-22T20:31:20.637Z,14.01
2022-10-22T20:36:20.533Z,14.04
2022-10-22T20:41:20.479Z,13.77
2022-10-22T20:46:20.399Z,13.17
2022-10-22T20:51:20.414Z,12.95
2022-10-22T20:56:20.283Z,12.59
2022-10-22T21:01:20.259Z,13.06
2022-10-22T21:06:20.151Z,13.17
2022-10-22T21:11:20.063Z,13.06
2022-10-22T21:16:20.004Z,13.03
2022-10-22T21:21:20.079Z,13.80
2022-10-22T21:26:19.899Z,13.61
2022-10-22T21:31:19.925Z,14.27
2022-10-22T21:36:22.756Z,13.69
2022-10-22T21:41:19.739Z,12.95
2022-10-22T21:46:19.605Z,12.67
2022-10-22T21:51:19.683Z,12.34
2022-10-22T21:56:19.523Z,12.59
2022-10-22T22:01:19.429Z,12.48
2022-10-22T22:06:21.360Z,12.52
2022-10-22T22:11:19.317Z,13.22
2022-10-22T22:16:21.307Z,13.12
2022-10-22T22:21:19.152Z,12.77
2022-10-22T22:26:19.073Z,13.03
2022-10-22T22:31:19.046Z,13.83
2022-10-22T22:36:18.979Z,13.65
2022-10-22T22:41:18.902Z,13.07
2022-10-22T22:46:18.873Z,12.45
2022-10-22T22:51:18.793Z,11.83
2022-10-22T22:56:18.690Z,11.50
2022-10-22T23:01:18.722Z,11.93
2022-10-22T23:06:18.563Z,11.29
2022-10-22T23:11:18.494Z,11.11
2022-10-22T23:16:18.455Z,11.35
2022-10-22T23:21:18.404Z,11.46
2022-10-22T23:26:18.287Z,11.32
2022-10-22T23:31:18.254Z,11.34
2022-10-22T23:36:18.236Z,11.82
2022-10-22T23:41:18.140Z,11.07
2022-10-22T23:46:18.159Z,11.65
2022-10-22T23:51:17.976Z,11.59
2022-10-22T23:56:17.960Z,11.34
